Penrose, Utah
Current Conditions -  °F | °C
As of 11:15 PM on Friday 28 Nov 2014 (Local Time) from KBMC Reporting Station
Clear Clear  
Wind Chill: 12°   Ceiling: Unl
Heat Index: 12°   Visibility: 10mi
Dew Point: -7°   Wind: 17mph
Humidity: 26%   Direction: 190°S
Pressure: 29.75"   Gusts: NA
Location:  41.6836°N, 112.26°W
Report Text: KBMC 290615Z AUTO 19015KT 10SM CLR 12/M07 A2975 RMK AO1 T01181073
Loading
Personal Weather Stations






























Interactive Weather Map New forecast layout! Learn more

10-Day Weather Forecast

Advertisements
Track Severe Weather on mobile